createdAt,value
2023-01-26T10:06:41.510Z,98587.00
2023-01-26T10:09:33.233Z,98602.00
2023-01-26T10:12:31.136Z,98605.00
2023-01-26T10:15:38.973Z,98615.00
2023-01-26T10:38:51.757Z,98601.00
2023-01-26T10:41:27.448Z,98596.00
2023-01-26T10:44:23.313Z,98598.00
2023-01-26T10:47:21.378Z,98593.00
2023-01-26T10:49:49.371Z,98594.00
2023-01-26T10:52:27.834Z,98590.00
2023-01-26T10:55:21.567Z,98594.00
2023-01-26T10:57:49.176Z,98592.00
2023-01-26T11:00:36.509Z,98587.00
2023-01-26T11:03:19.930Z,98583.00
2023-01-26T11:06:04.837Z,98582.00
2023-01-26T11:08:39.759Z,98586.00
2023-01-26T11:11:23.815Z,98579.00
2023-01-26T11:14:18.802Z,98572.00
2023-01-26T11:17:25.252Z,98572.00
2023-01-26T11:20:46.785Z,98561.00
2023-01-26T11:24:10.190Z,98567.00
2023-01-26T11:27:18.176Z,98554.00
2023-01-26T11:31:16.311Z,98565.00
2023-01-26T11:35:01.578Z,98560.00
2023-01-26T11:38:22.711Z,98558.00
2023-01-26T11:41:51.521Z,98552.00
2023-01-26T11:45:16.924Z,98549.00
2023-01-26T11:48:42.924Z,98546.00
2023-01-26T11:51:56.192Z,98546.00
2023-01-26T11:55:02.880Z,98552.00
2023-01-26T11:57:59.743Z,98551.00
2023-01-26T12:00:48.893Z,98547.00
2023-01-26T12:03:41.079Z,98544.00
2023-01-26T12:06:26.992Z,98546.00
2023-01-26T12:09:23.123Z,98543.00
2023-01-26T12:56:42.510Z,98486.00
2023-01-26T12:59:46.475Z,98489.00
2023-01-26T13:02:30.510Z,98487.00
2023-01-26T13:05:04.194Z,98480.00
2023-01-26T13:07:40.445Z,98473.00
2023-01-26T13:10:18.028Z,98479.00
2023-01-26T13:13:29.883Z,98483.00
2023-01-26T13:16:17.275Z,98485.00
2023-01-26T13:19:03.205Z,98478.00
2023-01-26T13:21:39.259Z,98482.00
2023-01-26T13:24:18.706Z,98485.00
2023-01-26T13:27:44.119Z,98476.00
2023-01-26T13:30:29.545Z,98474.00
